Portada
METAR-TAF:

METAR-TAF

Aeropuertos :

Aeropuerto Internacional de Maiquetía Simón Bolívar

Caracas, Venezuela

latitud: 10-36N, longitud: 066-59W, altitud: 43 m

Observación

El informe se hizo hace 55 minutos, a las 04:02 UTC
Viento 5 kt del este
Temperatura
Presión 1015 hPa

METAR: SVMI 270402Z AUTO 09005KT NCD ///// Q1015

Hora: 00:57 (04:57 UTC)

Pronóstico

El informe se hizo hace 6 horas y 57 minutos, a las 22:00 UTC
Pronóstico válido del 27 a las 00 UTC al 28 a las 00 UTC
Viento 8 kt del este
Visibilidad 10 km o más
Escasas nubes a una altura de 2000 ft
Evolucionando progresivamente
del 27 a las 00 UTC al 27 a las 06 UTC
Viento 1 kt del este
Visibilidad 10 km o más
Nubes dispersas a una altura de 1600 ft

TAF: SVMI 262200Z 2700/2800 09008KT 9999 FEW020 TX32/16Z TN26/08Z BECMG 2700/2706 09001KT 9999 SCT016

Observaciones y pronósticos meteorológicos de más de 4000 aeropuertos (mensajes METAR y TAF).

Los puntos amarillos y rojos representan las estaciones disponibles.

Ponga el ratón en el punto deseado para ver el nombre de la estación.

Haga clic para ver las observaciones y los pronósticos meteorológicos.

Para cambiar el mapa : haga clic en los botones verdes con una cruz de color negro para hacer un zoom, en el botón verde con un guión para alejar o en las flechas verdes para mapas adyacentes.


METAR-TAF: